Diamond Ocean — VRMF8 — position and weather

sailwx.info

Track history (hours):
 
Tides and Currents Weather Stations Pressure Air Temp Water Temp Dewpoint Dewpoint Depression Visibility Wind Speed Wind Dir Waves Ship Positions

Diamond Ocean

Last reported at 2017-Oct-11 00:00 UTC. Time now 2017-Oct-22 19:04 UTC.
Position N 35°25' W 009°12'.
Warning: this ship's position is 11 days out of date.

Length 228 m; draft 7.5 m.

Type: Cargo ship. MMSI: 477942600.

Date/timePositionNaut miles runAvg speedWind from/ knotsBaromVisibWave heightAir tempDewpointWater temp
2017-Oct-11 00:00N 35°25' W 009°12'713.7
2017-Oct-10 23:30N 35°27' W 009°04'714.1
2017-Oct-10 23:00N 35°29' W 008°56'713.9
2017-Oct-10 22:30N 35°31' W 008°48'713.5
2017-Oct-10 22:00N 35°33' W 008°40'713.8
2017-Oct-10 21:30N 35°35' W 008°31'713.6
2017-Oct-10 21:00N 35°38' W 008°24'713.5
2017-Oct-10 20:30N 35°40' W 008°15'713.5
2017-Oct-10 20:00N 35°42' W 008°08'713.4
2017-Oct-10 19:30N 35°44' W 007°60'713.2
2017-Oct-10 19:00N 35°46' W 007°52'713.3
2017-Oct-10 18:30N 35°48' W 007°44'713.1
2017-Oct-10 18:00N 35°50' W 007°37'713.2
2017-Oct-10 17:30N 35°52' W 007°29'713.3
2017-Oct-10 17:00N 35°54' W 007°21'713.2
2017-Oct-10 16:30N 35°56' W 007°13'612.5
2017-Oct-10 16:00N 35°57' W 007°06'612.9
2017-Oct-10 15:30N 35°58' W 006°58'714.1
2017-Oct-10 15:00N 35°58' W 006°49'1413.7
2017-Oct-10 14:01N 35°58' W 006°32'713.5
2017-Oct-10 13:30N 35°58' W 006°24'1014.3
2017-Oct-10 12:48N 35°57' W 006°11'413.9
2017-Oct-10 12:30N 35°57' W 006°06'713.9
2017-Oct-10 11:59N 35°58' W 005°57'1713.1
2017-Oct-10 10:42N 35°58' W 005°37'211.4
2017-Oct-10 10:30N 35°58' W 005°34'510.6
2017-Oct-10 10:00N 35°59' W 005°27'4 8.9
2017-Oct-10 09:30N 35°58' W 005°22'221 8.8
2017-Oct-09 08:22N 36°43' W 000°53'613.6
2017-Oct-09 07:54N 36°45' W 000°46'513.6
2017-Oct-09 07:30N 36°46' W 000°39'713.7
2017-Oct-09 07:00N 36°48' W 000°31'1213.5
2017-Oct-09 06:07N 36°51' W 000°17'413.2
2017-Oct-09 05:47N 36°52' W 000°11'413.3
2017-Oct-09 05:30N 36°53' W 000°07'713.4
2017-Oct-09 05:01N 36°55' E 000°01'713.3
2017-Oct-09 04:31N 36°57' E 000°09'713.2
2017-Oct-09 04:01N 36°58' E 000°17'713.0
2017-Oct-09 03:31N 37°00' E 000°25'713.2
2017-Oct-09 03:01N 37°02' E 000°33'713.5
2017-Oct-09 02:30N 37°04' E 000°41'813.5
2017-Oct-09 01:57N 37°06' E 000°50'38613.3
2017-Oct-07 20:54N 38°48' E 008°43'613.9
2017-Oct-07 20:30N 38°49' E 008°50'714.1
2017-Oct-07 20:00N 38°51' E 008°59'714.1
2017-Oct-07 19:30N 38°53' E 009°07'714.0
2017-Oct-07 19:00N 38°55' E 009°16'714.1
2017-Oct-07 18:30N 38°56' E 009°25'813.7
2017-Oct-07 17:56N 38°59' E 009°34'  
Track history (hours):
 
Tides and Currents Weather Stations Pressure Air Temp Water Temp Dewpoint Dewpoint Depression Visibility Wind Speed Wind Dir Waves Ship Positions

Diamond Ocean

Last reported at 2017-Oct-11 00:00 UTC. Time now 2017-Oct-22 19:04 UTC.
Position N 35°25' W 009°12'.
Warning: this ship's position is 11 days out of date.

Length 228 m; draft 7.5 m.

Type: Cargo ship. MMSI: 477942600.

Date/timePositionNaut miles runAvg speedWind from/ knotsBaromVisibWave heightAir tempDewpointWater temp
2017-Oct-11 00:00N 35°25' W 009°12'713.7
2017-Oct-10 23:30N 35°27' W 009°04'714.1
2017-Oct-10 23:00N 35°29' W 008°56'713.9
2017-Oct-10 22:30N 35°31' W 008°48'713.5
2017-Oct-10 22:00N 35°33' W 008°40'713.8
2017-Oct-10 21:30N 35°35' W 008°31'713.6
2017-Oct-10 21:00N 35°38' W 008°24'713.5
2017-Oct-10 20:30N 35°40' W 008°15'713.5
2017-Oct-10 20:00N 35°42' W 008°08'713.4
2017-Oct-10 19:30N 35°44' W 007°60'713.2
2017-Oct-10 19:00N 35°46' W 007°52'713.3
2017-Oct-10 18:30N 35°48' W 007°44'713.1
2017-Oct-10 18:00N 35°50' W 007°37'713.2
2017-Oct-10 17:30N 35°52' W 007°29'713.3
2017-Oct-10 17:00N 35°54' W 007°21'713.2
2017-Oct-10 16:30N 35°56' W 007°13'612.5
2017-Oct-10 16:00N 35°57' W 007°06'612.9
2017-Oct-10 15:30N 35°58' W 006°58'714.1
2017-Oct-10 15:00N 35°58' W 006°49'1413.7
2017-Oct-10 14:01N 35°58' W 006°32'713.5
2017-Oct-10 13:30N 35°58' W 006°24'1014.3
2017-Oct-10 12:48N 35°57' W 006°11'413.9
2017-Oct-10 12:30N 35°57' W 006°06'713.9
2017-Oct-10 11:59N 35°58' W 005°57'1713.1
2017-Oct-10 10:42N 35°58' W 005°37'211.4
2017-Oct-10 10:30N 35°58' W 005°34'510.6
2017-Oct-10 10:00N 35°59' W 005°27'4 8.9
2017-Oct-10 09:30N 35°58' W 005°22'221 8.8
2017-Oct-09 08:22N 36°43' W 000°53'613.6
2017-Oct-09 07:54N 36°45' W 000°46'513.6
2017-Oct-09 07:30N 36°46' W 000°39'713.7
2017-Oct-09 07:00N 36°48' W 000°31'1213.5
2017-Oct-09 06:07N 36°51' W 000°17'413.2
2017-Oct-09 05:47N 36°52' W 000°11'413.3
2017-Oct-09 05:30N 36°53' W 000°07'713.4
2017-Oct-09 05:01N 36°55' E 000°01'713.3
2017-Oct-09 04:31N 36°57' E 000°09'713.2
2017-Oct-09 04:01N 36°58' E 000°17'713.0
2017-Oct-09 03:31N 37°00' E 000°25'713.2
2017-Oct-09 03:01N 37°02' E 000°33'713.5
2017-Oct-09 02:30N 37°04' E 000°41'813.5
2017-Oct-09 01:57N 37°06' E 000°50'38613.3
2017-Oct-07 20:54N 38°48' E 008°43'613.9
2017-Oct-07 20:30N 38°49' E 008°50'714.1
2017-Oct-07 20:00N 38°51' E 008°59'714.1
2017-Oct-07 19:30N 38°53' E 009°07'714.0
2017-Oct-07 19:00N 38°55' E 009°16'714.1
2017-Oct-07 18:30N 38°56' E 009°25'813.7
2017-Oct-07 17:56N 38°59' E 009°34'  

Dump ship's entire track history